sensor_id;sensor_type;location;lat;lon;timestamp;P1;durP1;ratioP1;P2;durP2;ratioP2
68025;SDS011;54819;48.030;14.710;2023-05-10T00:01:35;9.20;;;5.10;;
68025;SDS011;54819;48.030;14.710;2023-05-10T00:04:02;7.90;;;4.70;;
68025;SDS011;54819;48.030;14.710;2023-05-10T00:06:28;7.30;;;4.40;;
68025;SDS011;54819;48.030;14.710;2023-05-10T00:08:56;7.30;;;4.30;;
68025;SDS011;54819;48.030;14.710;2023-05-10T00:11:22;8.90;;;4.60;;
68025;SDS011;54819;48.030;14.710;2023-05-10T00:13:49;8.00;;;4.30;;
68025;SDS011;54819;48.030;14.710;2023-05-10T00:16:16;8.40;;;4.60;;
68025;SDS011;54819;48.030;14.710;2023-05-10T00:18:43;9.10;;;5.00;;
68025;SDS011;54819;48.030;14.710;2023-05-10T00:21:09;8.50;;;4.50;;
68025;SDS011;54819;48.030;14.710;2023-05-10T00:23:36;8.20;;;5.00;;
68025;SDS011;54819;48.030;14.710;2023-05-10T00:26:03;9.00;;;4.70;;
68025;SDS011;54819;48.030;14.710;2023-05-10T00:28:30;7.90;;;4.20;;
68025;SDS011;54819;48.030;14.710;2023-05-10T00:30:57;7.50;;;4.30;;
68025;SDS011;54819;48.030;14.710;2023-05-10T00:33:23;7.10;;;3.90;;
68025;SDS011;54819;48.030;14.710;2023-05-10T00:35:50;7.90;;;4.40;;
68025;SDS011;54819;48.030;14.710;2023-05-10T00:38:17;8.70;;;4.60;;
68025;SDS011;54819;48.030;14.710;2023-05-10T00:44:17;7.10;;;4.40;;
68025;SDS011;54819;48.030;14.710;2023-05-10T00:46:45;8.80;;;4.60;;
68025;SDS011;54819;48.030;14.710;2023-05-10T00:49:12;7.30;;;4.50;;
68025;SDS011;54819;48.030;14.710;2023-05-10T00:51:39;6.60;;;4.40;;
68025;SDS011;54819;48.030;14.710;2023-05-10T00:54:06;6.90;;;4.10;;
68025;SDS011;54819;48.030;14.710;2023-05-10T00:56:33;10.60;;;4.90;;
68025;SDS011;54819;48.030;14.710;2023-05-10T00:59:00;7.70;;;4.70;;
68025;SDS011;54819;48.030;14.710;2023-05-10T01:01:28;7.80;;;4.20;;
68025;SDS011;54819;48.030;14.710;2023-05-10T01:03:55;7.40;;;4.00;;
68025;SDS011;54819;48.030;14.710;2023-05-10T01:06:23;7.60;;;4.40;;
68025;SDS011;54819;48.030;14.710;2023-05-10T01:08:50;8.70;;;4.10;;
68025;SDS011;54819;48.030;14.710;2023-05-10T01:11:17;8.70;;;4.90;;
68025;SDS011;54819;48.030;14.710;2023-05-10T01:13:49;8.30;;;4.90;;
68025;SDS011;54819;48.030;14.710;2023-05-10T01:16:22;7.10;;;4.40;;
68025;SDS011;54819;48.030;14.710;2023-05-10T01:18:51;6.80;;;4.50;;
68025;SDS011;54819;48.030;14.710;2023-05-10T01:21:38;11.20;;;6.20;;
68025;SDS011;54819;48.030;14.710;2023-05-10T01:24:55;6.60;;;4.30;;
68025;SDS011;54819;48.030;14.710;2023-05-10T01:30:58;7.40;;;4.10;;
68025;SDS011;54819;48.030;14.710;2023-05-10T01:37:25;8.40;;;3.70;;
68025;SDS011;54819;48.030;14.710;2023-05-10T01:43:27;7.70;;;4.30;;
68025;SDS011;54819;48.030;14.710;2023-05-10T01:46:05;10.40;;;4.60;;
68025;SDS011;54819;48.030;14.710;2023-05-10T01:48:47;7.80;;;4.50;;
68025;SDS011;54819;48.030;14.710;2023-05-10T01:51:24;7.40;;;4.40;;
68025;SDS011;54819;48.030;14.710;2023-05-10T01:53:59;8.30;;;5.40;;
68025;SDS011;54819;48.030;14.710;2023-05-10T01:56:31;8.40;;;4.80;;
68025;SDS011;54819;48.030;14.710;2023-05-10T01:59:00;6.80;;;4.00;;
68025;SDS011;54819;48.030;14.710;2023-05-10T02:01:31;6.90;;;4.40;;
68025;SDS011;54819;48.030;14.710;2023-05-10T02:04:00;6.90;;;4.50;;
68025;SDS011;54819;48.030;14.710;2023-05-10T02:06:30;8.10;;;4.10;;
68025;SDS011;54819;48.030;14.710;2023-05-10T02:09:00;7.50;;;4.00;;
68025;SDS011;54819;48.030;14.710;2023-05-10T02:11:30;6.40;;;4.10;;
68025;SDS011;54819;48.030;14.710;2023-05-10T02:13:58;7.90;;;4.90;;
68025;SDS011;54819;48.030;14.710;2023-05-10T02:16:28;6.90;;;4.20;;
68025;SDS011;54819;48.030;14.710;2023-05-10T02:18:59;7.20;;;4.30;;
68025;SDS011;54819;48.030;14.710;2023-05-10T02:21:29;7.50;;;4.60;;
68025;SDS011;54819;48.030;14.710;2023-05-10T02:23:57;9.50;;;4.50;;
68025;SDS011;54819;48.030;14.710;2023-05-10T02:26:28;17.40;;;8.20;;
68025;SDS011;54819;48.030;14.710;2023-05-10T02:28:57;24.60;;;11.30;;
68025;SDS011;54819;48.030;14.710;2023-05-10T02:31:25;27.50;;;12.20;;
68025;SDS011;54819;48.030;14.710;2023-05-10T02:33:53;53.00;;;22.70;;
68025;SDS011;54819;48.030;14.710;2023-05-10T02:36:21;41.40;;;20.40;;
68025;SDS011;54819;48.030;14.710;2023-05-10T02:38:51;36.40;;;19.30;;
68025;SDS011;54819;48.030;14.710;2023-05-10T02:41:21;32.60;;;14.80;;
68025;SDS011;54819;48.030;14.710;2023-05-10T02:43:50;15.80;;;8.70;;
68025;SDS011;54819;48.030;14.710;2023-05-10T02:46:23;12.40;;;6.10;;
68025;SDS011;54819;48.030;14.710;2023-05-10T02:48:50;9.40;;;5.40;;
68025;SDS011;54819;48.030;14.710;2023-05-10T02:51:18;13.50;;;5.50;;
68025;SDS011;54819;48.030;14.710;2023-05-10T02:53:50;36.40;;;13.90;;
68025;SDS011;54819;48.030;14.710;2023-05-10T02:56:24;35.20;;;12.80;;
68025;SDS011;54819;48.030;14.710;2023-05-10T02:58:55;19.90;;;8.00;;
68025;SDS011;54819;48.030;14.710;2023-05-10T03:01:22;16.60;;;6.20;;
68025;SDS011;54819;48.030;14.710;2023-05-10T03:03:49;12.60;;;5.50;;
68025;SDS011;54819;48.030;14.710;2023-05-10T03:06:15;11.30;;;5.50;;
68025;SDS011;54819;48.030;14.710;2023-05-10T03:08:44;10.20;;;5.60;;
68025;SDS011;54819;48.030;14.710;2023-05-10T03:17:13;19.30;;;7.80;;
68025;SDS011;54819;48.030;14.710;2023-05-10T03:19:57;22.60;;;8.60;;
68025;SDS011;54819;48.030;14.710;2023-05-10T03:22:41;21.70;;;7.70;;
68025;SDS011;54819;48.030;14.710;2023-05-10T03:25:15;16.20;;;6.40;;
68025;SDS011;54819;48.030;14.710;2023-05-10T03:27:43;16.20;;;7.40;;
68025;SDS011;54819;48.030;14.710;2023-05-10T03:30:12;18.50;;;7.70;;
68025;SDS011;54819;48.030;14.710;2023-05-10T03:32:40;23.40;;;9.10;;
68025;SDS011;54819;48.030;14.710;2023-05-10T03:35:08;18.00;;;7.60;;
68025;SDS011;54819;48.030;14.710;2023-05-10T03:37:36;18.00;;;7.10;;
68025;SDS011;54819;48.030;14.710;2023-05-10T03:40:03;18.50;;;6.60;;
68025;SDS011;54819;48.030;14.710;2023-05-10T03:42:32;17.70;;;7.40;;
68025;SDS011;54819;48.030;14.710;2023-05-10T03:44:59;13.60;;;7.00;;
68025;SDS011;54819;48.030;14.710;2023-05-10T03:47:25;16.40;;;7.40;;
68025;SDS011;54819;48.030;14.710;2023-05-10T03:49:52;12.30;;;6.70;;
68025;SDS011;54819;48.030;14.710;2023-05-10T03:52:19;12.10;;;5.60;;
68025;SDS011;54819;48.030;14.710;2023-05-10T03:54:46;12.30;;;5.30;;
68025;SDS011;54819;48.030;14.710;2023-05-10T03:57:13;9.60;;;4.60;;
68025;SDS011;54819;48.030;14.710;2023-05-10T03:59:40;11.60;;;5.50;;
68025;SDS011;54819;48.030;14.710;2023-05-10T04:02:06;9.50;;;5.50;;
68025;SDS011;54819;48.030;14.710;2023-05-10T04:04:33;9.80;;;4.90;;
68025;SDS011;54819;48.030;14.710;2023-05-10T04:06:59;9.30;;;5.50;;
68025;SDS011;54819;48.030;14.710;2023-05-10T04:09:26;9.20;;;5.00;;
68025;SDS011;54819;48.030;14.710;2023-05-10T04:11:53;6.40;;;3.90;;
68025;SDS011;54819;48.030;14.710;2023-05-10T04:14:19;11.70;;;4.10;;
68025;SDS011;54819;48.030;14.710;2023-05-10T04:16:46;8.30;;;4.40;;
68025;SDS011;54819;48.030;14.710;2023-05-10T04:19:13;8.10;;;4.30;;
68025;SDS011;54819;48.030;14.710;2023-05-10T04:21:39;7.30;;;4.50;;
68025;SDS011;54819;48.030;14.710;2023-05-10T04:24:06;9.10;;;4.40;;
68025;SDS011;54819;48.030;14.710;2023-05-10T04:26:33;10.30;;;4.30;;
68025;SDS011;54819;48.030;14.710;2023-05-10T04:28:59;7.20;;;4.10;;
68025;SDS011;54819;48.030;14.710;2023-05-10T04:31:26;6.60;;;3.30;;
68025;SDS011;54819;48.030;14.710;2023-05-10T04:33:54;8.50;;;4.60;;
68025;SDS011;54819;48.030;14.710;2023-05-10T04:36:21;7.30;;;4.40;;
68025;SDS011;54819;48.030;14.710;2023-05-10T04:38:47;12.90;;;5.10;;
68025;SDS011;54819;48.030;14.710;2023-05-10T04:41:14;8.40;;;4.20;;
68025;SDS011;54819;48.030;14.710;2023-05-10T04:43:41;6.10;;;4.00;;
68025;SDS011;54819;48.030;14.710;2023-05-10T04:46:07;10.00;;;4.60;;
68025;SDS011;54819;48.030;14.710;2023-05-10T04:48:34;8.30;;;4.50;;
68025;SDS011;54819;48.030;14.710;2023-05-10T04:51:01;8.00;;;4.50;;
68025;SDS011;54819;48.030;14.710;2023-05-10T04:53:27;8.60;;;4.00;;
68025;SDS011;54819;48.030;14.710;2023-05-10T04:55:54;6.70;;;3.80;;
68025;SDS011;54819;48.030;14.710;2023-05-10T04:58:21;8.60;;;4.20;;
68025;SDS011;54819;48.030;14.710;2023-05-10T05:00:47;6.90;;;4.20;;
68025;SDS011;54819;48.030;14.710;2023-05-10T05:03:14;8.60;;;4.10;;
68025;SDS011;54819;48.030;14.710;2023-05-10T05:05:41;7.50;;;4.10;;
68025;SDS011;54819;48.030;14.710;2023-05-10T05:08:08;7.90;;;3.70;;
68025;SDS011;54819;48.030;14.710;2023-05-10T05:10:35;8.60;;;4.20;;
68025;SDS011;54819;48.030;14.710;2023-05-10T05:13:01;7.40;;;3.90;;
68025;SDS011;54819;48.030;14.710;2023-05-10T05:15:28;7.00;;;4.00;;
68025;SDS011;54819;48.030;14.710;2023-05-10T05:17:56;7.60;;;4.10;;
68025;SDS011;54819;48.030;14.710;2023-05-10T05:20:23;7.40;;;4.20;;
68025;SDS011;54819;48.030;14.710;2023-05-10T05:22:49;7.90;;;3.50;;
68025;SDS011;54819;48.030;14.710;2023-05-10T05:25:16;7.70;;;4.20;;
68025;SDS011;54819;48.030;14.710;2023-05-10T05:27:42;9.30;;;4.20;;
68025;SDS011;54819;48.030;14.710;2023-05-10T05:30:09;9.00;;;4.10;;
68025;SDS011;54819;48.030;14.710;2023-05-10T05:32:36;6.10;;;3.60;;
68025;SDS011;54819;48.030;14.710;2023-05-10T05:35:03;7.60;;;3.50;;
68025;SDS011;54819;48.030;14.710;2023-05-10T05:37:31;9.50;;;4.10;;
68025;SDS011;54819;48.030;14.710;2023-05-10T05:39:57;7.10;;;3.80;;
68025;SDS011;54819;48.030;14.710;2023-05-10T05:42:24;7.00;;;4.00;;
68025;SDS011;54819;48.030;14.710;2023-05-10T05:44:51;7.50;;;4.00;;
68025;SDS011;54819;48.030;14.710;2023-05-10T05:47:18;7.50;;;3.50;;
68025;SDS011;54819;48.030;14.710;2023-05-10T05:49:45;7.90;;;4.00;;
68025;SDS011;54819;48.030;14.710;2023-05-10T05:52:12;7.60;;;3.20;;
68025;SDS011;54819;48.030;14.710;2023-05-10T05:54:39;7.50;;;3.90;;
68025;SDS011;54819;48.030;14.710;2023-05-10T05:57:06;7.50;;;4.10;;
68025;SDS011;54819;48.030;14.710;2023-05-10T05:59:32;7.20;;;4.00;;
68025;SDS011;54819;48.030;14.710;2023-05-10T06:01:59;7.80;;;4.00;;
68025;SDS011;54819;48.030;14.710;2023-05-10T06:04:27;7.50;;;3.90;;
68025;SDS011;54819;48.030;14.710;2023-05-10T06:06:54;7.00;;;3.50;;
68025;SDS011;54819;48.030;14.710;2023-05-10T06:09:20;8.70;;;3.90;;
68025;SDS011;54819;48.030;14.710;2023-05-10T06:11:47;8.10;;;3.70;;
68025;SDS011;54819;48.030;14.710;2023-05-10T06:14:14;7.70;;;4.10;;
68025;SDS011;54819;48.030;14.710;2023-05-10T06:16:41;7.60;;;3.60;;
68025;SDS011;54819;48.030;14.710;2023-05-10T06:19:07;8.50;;;3.50;;
68025;SDS011;54819;48.030;14.710;2023-05-10T06:21:34;8.40;;;3.90;;
68025;SDS011;54819;48.030;14.710;2023-05-10T06:24:01;6.00;;;3.80;;
68025;SDS011;54819;48.030;14.710;2023-05-10T06:26:27;5.50;;;3.20;;
68025;SDS011;54819;48.030;14.710;2023-05-10T06:28:54;8.30;;;4.00;;
68025;SDS011;54819;48.030;14.710;2023-05-10T06:31:21;7.20;;;3.90;;
68025;SDS011;54819;48.030;14.710;2023-05-10T06:33:47;6.50;;;3.70;;
68025;SDS011;54819;48.030;14.710;2023-05-10T06:36:14;8.50;;;4.30;;
68025;SDS011;54819;48.030;14.710;2023-05-10T06:38:41;7.40;;;3.80;;
68025;SDS011;54819;48.030;14.710;2023-05-10T06:41:07;7.40;;;4.00;;
68025;SDS011;54819;48.030;14.710;2023-05-10T06:43:34;7.40;;;3.70;;
68025;SDS011;54819;48.030;14.710;2023-05-10T06:46:01;6.90;;;4.10;;
68025;SDS011;54819;48.030;14.710;2023-05-10T06:48:28;7.30;;;3.70;;
68025;SDS011;54819;48.030;14.710;2023-05-10T06:50:54;9.10;;;4.00;;
68025;SDS011;54819;48.030;14.710;2023-05-10T06:53:21;9.90;;;4.20;;
68025;SDS011;54819;48.030;14.710;2023-05-10T06:55:49;8.70;;;4.50;;
68025;SDS011;54819;48.030;14.710;2023-05-10T07:00:42;7.40;;;3.80;;
68025;SDS011;54819;48.030;14.710;2023-05-10T07:03:10;8.00;;;4.20;;
68025;SDS011;54819;48.030;14.710;2023-05-10T07:05:37;7.00;;;3.70;;
68025;SDS011;54819;48.030;14.710;2023-05-10T07:08:04;9.70;;;4.50;;
68025;SDS011;54819;48.030;14.710;2023-05-10T07:10:31;6.80;;;3.80;;
68025;SDS011;54819;48.030;14.710;2023-05-10T07:12:58;10.00;;;4.50;;
68025;SDS011;54819;48.030;14.710;2023-05-10T07:17:54;6.80;;;4.10;;
68025;SDS011;54819;48.030;14.710;2023-05-10T07:20:21;5.90;;;3.50;;
68025;SDS011;54819;48.030;14.710;2023-05-10T07:22:47;8.00;;;4.00;;
68025;SDS011;54819;48.030;14.710;2023-05-10T07:25:14;7.30;;;3.90;;
68025;SDS011;54819;48.030;14.710;2023-05-10T07:27:41;6.80;;;4.00;;
68025;SDS011;54819;48.030;14.710;2023-05-10T07:30:08;8.50;;;4.30;;
68025;SDS011;54819;48.030;14.710;2023-05-10T07:32:35;7.80;;;4.50;;
68025;SDS011;54819;48.030;14.710;2023-05-10T07:35:02;8.40;;;4.30;;
68025;SDS011;54819;48.030;14.710;2023-05-10T07:37:29;8.60;;;3.70;;
68025;SDS011;54819;48.030;14.710;2023-05-10T07:39:56;8.30;;;4.70;;
68025;SDS011;54819;48.030;14.710;2023-05-10T07:42:23;6.50;;;3.90;;
68025;SDS011;54819;48.030;14.710;2023-05-10T07:44:49;7.60;;;3.50;;
68025;SDS011;54819;48.030;14.710;2023-05-10T07:47:16;8.30;;;4.30;;
68025;SDS011;54819;48.030;14.710;2023-05-10T07:49:43;8.00;;;4.10;;
68025;SDS011;54819;48.030;14.710;2023-05-10T07:52:09;8.40;;;4.10;;
68025;SDS011;54819;48.030;14.710;2023-05-10T07:54:36;13.00;;;4.40;;
68025;SDS011;54819;48.030;14.710;2023-05-10T07:57:03;8.70;;;4.00;;
68025;SDS011;54819;48.030;14.710;2023-05-10T07:59:30;7.00;;;3.80;;
68025;SDS011;54819;48.030;14.710;2023-05-10T08:01:57;7.00;;;3.60;;
68025;SDS011;54819;48.030;14.710;2023-05-10T08:04:23;8.40;;;4.50;;
68025;SDS011;54819;48.030;14.710;2023-05-10T08:06:50;9.30;;;4.50;;
68025;SDS011;54819;48.030;14.710;2023-05-10T08:09:17;8.10;;;4.30;;
68025;SDS011;54819;48.030;14.710;2023-05-10T08:11:44;8.90;;;4.30;;
68025;SDS011;54819;48.030;14.710;2023-05-10T08:14:10;7.90;;;4.00;;
68025;SDS011;54819;48.030;14.710;2023-05-10T08:16:37;6.80;;;4.00;;
68025;SDS011;54819;48.030;14.710;2023-05-10T08:19:03;6.50;;;4.00;;
68025;SDS011;54819;48.030;14.710;2023-05-10T08:21:31;7.50;;;3.50;;
68025;SDS011;54819;48.030;14.710;2023-05-10T08:23:58;7.60;;;4.20;;
68025;SDS011;54819;48.030;14.710;2023-05-10T08:26:24;7.80;;;4.70;;
68025;SDS011;54819;48.030;14.710;2023-05-10T08:28:52;8.10;;;4.30;;
68025;SDS011;54819;48.030;14.710;2023-05-10T08:31:18;6.70;;;4.30;;
68025;SDS011;54819;48.030;14.710;2023-05-10T08:33:45;7.50;;;4.20;;
68025;SDS011;54819;48.030;14.710;2023-05-10T08:36:12;6.70;;;3.80;;
68025;SDS011;54819;48.030;14.710;2023-05-10T08:38:40;8.60;;;4.80;;
68025;SDS011;54819;48.030;14.710;2023-05-10T08:41:07;6.50;;;4.00;;
68025;SDS011;54819;48.030;14.710;2023-05-10T08:46:05;8.80;;;4.30;;
68025;SDS011;54819;48.030;14.710;2023-05-10T08:48:34;7.30;;;4.10;;
68025;SDS011;54819;48.030;14.710;2023-05-10T08:51:02;7.00;;;4.00;;
68025;SDS011;54819;48.030;14.710;2023-05-10T08:53:32;5.30;;;3.60;;
68025;SDS011;54819;48.030;14.710;2023-05-10T08:56:03;7.80;;;4.10;;
68025;SDS011;54819;48.030;14.710;2023-05-10T08:58:30;6.90;;;4.30;;
68025;SDS011;54819;48.030;14.710;2023-05-10T09:00:57;6.60;;;4.50;;
68025;SDS011;54819;48.030;14.710;2023-05-10T09:08:20;9.00;;;4.50;;
68025;SDS011;54819;48.030;14.710;2023-05-10T09:10:48;7.30;;;4.80;;
68025;SDS011;54819;48.030;14.710;2023-05-10T09:13:15;6.80;;;4.30;;
68025;SDS011;54819;48.030;14.710;2023-05-10T09:15:44;10.40;;;4.10;;
68025;SDS011;54819;48.030;14.710;2023-05-10T09:18:12;8.50;;;4.30;;
68025;SDS011;54819;48.030;14.710;2023-05-10T09:23:07;9.50;;;4.10;;
68025;SDS011;54819;48.030;14.710;2023-05-10T09:28:01;9.30;;;4.50;;
68025;SDS011;54819;48.030;14.710;2023-05-10T09:30:30;7.50;;;4.90;;
68025;SDS011;54819;48.030;14.710;2023-05-10T09:32:59;6.40;;;4.00;;
68025;SDS011;54819;48.030;14.710;2023-05-10T09:35:28;6.90;;;3.70;;
68025;SDS011;54819;48.030;14.710;2023-05-10T09:38:02;7.60;;;4.50;;
68025;SDS011;54819;48.030;14.710;2023-05-10T09:40:30;6.40;;;3.80;;
68025;SDS011;54819;48.030;14.710;2023-05-10T09:43:07;8.40;;;4.70;;
68025;SDS011;54819;48.030;14.710;2023-05-10T09:45:35;8.30;;;4.80;;
68025;SDS011;54819;48.030;14.710;2023-05-10T09:48:05;7.60;;;4.40;;
68025;SDS011;54819;48.030;14.710;2023-05-10T09:50:32;8.20;;;4.30;;
68025;SDS011;54819;48.030;14.710;2023-05-10T09:53:02;7.70;;;4.80;;
68025;SDS011;54819;48.030;14.710;2023-05-10T09:55:44;7.30;;;4.60;;
68025;SDS011;54819;48.030;14.710;2023-05-10T09:58:13;7.90;;;4.40;;
68025;SDS011;54819;48.030;14.710;2023-05-10T10:03:18;13.90;;;4.40;;
68025;SDS011;54819;48.030;14.710;2023-05-10T10:05:47;8.30;;;4.80;;
68025;SDS011;54819;48.030;14.710;2023-05-10T10:08:15;9.30;;;4.30;;
68025;SDS011;54819;48.030;14.710;2023-05-10T10:10:44;8.00;;;4.40;;
68025;SDS011;54819;48.030;14.710;2023-05-10T10:13:13;8.60;;;4.50;;
68025;SDS011;54819;48.030;14.710;2023-05-10T10:15:41;9.20;;;4.60;;
68025;SDS011;54819;48.030;14.710;2023-05-10T10:18:12;6.40;;;3.90;;
68025;SDS011;54819;48.030;14.710;2023-05-10T10:20:41;9.70;;;4.90;;
68025;SDS011;54819;48.030;14.710;2023-05-10T10:23:08;7.10;;;4.40;;
68025;SDS011;54819;48.030;14.710;2023-05-10T10:25:37;8.90;;;5.10;;
68025;SDS011;54819;48.030;14.710;2023-05-10T10:28:20;6.50;;;4.40;;
68025;SDS011;54819;48.030;14.710;2023-05-10T10:30:54;8.70;;;4.50;;
68025;SDS011;54819;48.030;14.710;2023-05-10T10:36:45;8.90;;;4.40;;
68025;SDS011;54819;48.030;14.710;2023-05-10T10:39:14;10.00;;;5.20;;
68025;SDS011;54819;48.030;14.710;2023-05-10T10:41:55;7.80;;;5.10;;
68025;SDS011;54819;48.030;14.710;2023-05-10T10:57:42;7.00;;;4.30;;
68025;SDS011;54819;48.030;14.710;2023-05-10T11:03:01;7.60;;;4.60;;
68025;SDS011;54819;48.030;14.710;2023-05-10T11:05:43;5.80;;;3.60;;
68025;SDS011;54819;48.030;14.710;2023-05-10T11:10:53;7.90;;;5.10;;
68025;SDS011;54819;48.030;14.710;2023-05-10T11:13:43;8.90;;;4.90;;
68025;SDS011;54819;48.030;14.710;2023-05-10T11:16:25;9.30;;;4.40;;
68025;SDS011;54819;48.030;14.710;2023-05-10T11:19:04;10.70;;;5.80;;
68025;SDS011;54819;48.030;14.710;2023-05-10T11:21:44;7.70;;;4.70;;
68025;SDS011;54819;48.030;14.710;2023-05-10T11:24:20;7.10;;;4.60;;
68025;SDS011;54819;48.030;14.710;2023-05-10T11:26:53;8.30;;;5.10;;
68025;SDS011;54819;48.030;14.710;2023-05-10T11:29:20;8.50;;;4.80;;
68025;SDS011;54819;48.030;14.710;2023-05-10T11:31:47;8.00;;;5.20;;
68025;SDS011;54819;48.030;14.710;2023-05-10T11:34:29;7.80;;;4.90;;
68025;SDS011;54819;48.030;14.710;2023-05-10T11:36:59;8.50;;;5.10;;
68025;SDS011;54819;48.030;14.710;2023-05-10T11:39:28;6.30;;;4.30;;
68025;SDS011;54819;48.030;14.710;2023-05-10T11:41:57;7.30;;;4.80;;
68025;SDS011;54819;48.030;14.710;2023-05-10T11:44:32;9.30;;;6.20;;
68025;SDS011;54819;48.030;14.710;2023-05-10T11:47:00;7.70;;;4.60;;
68025;SDS011;54819;48.030;14.710;2023-05-10T11:49:28;6.80;;;3.90;;
68025;SDS011;54819;48.030;14.710;2023-05-10T11:52:12;6.40;;;4.20;;
68025;SDS011;54819;48.030;14.710;2023-05-10T11:54:52;13.70;;;4.70;;
68025;SDS011;54819;48.030;14.710;2023-05-10T11:57:25;7.60;;;4.40;;
68025;SDS011;54819;48.030;14.710;2023-05-10T11:59:53;10.30;;;4.70;;
68025;SDS011;54819;48.030;14.710;2023-05-10T12:02:21;9.80;;;4.60;;
68025;SDS011;54819;48.030;14.710;2023-05-10T12:04:49;7.30;;;5.00;;
68025;SDS011;54819;48.030;14.710;2023-05-10T12:07:17;6.50;;;4.40;;
68025;SDS011;54819;48.030;14.710;2023-05-10T12:09:44;13.30;;;5.40;;
68025;SDS011;54819;48.030;14.710;2023-05-10T12:12:16;7.40;;;4.70;;
68025;SDS011;54819;48.030;14.710;2023-05-10T12:14:43;8.20;;;5.20;;
68025;SDS011;54819;48.030;14.710;2023-05-10T12:17:12;8.60;;;4.70;;
68025;SDS011;54819;48.030;14.710;2023-05-10T12:19:40;8.60;;;4.50;;
68025;SDS011;54819;48.030;14.710;2023-05-10T12:24:35;8.20;;;5.00;;
68025;SDS011;54819;48.030;14.710;2023-05-10T12:27:05;8.10;;;5.80;;
68025;SDS011;54819;48.030;14.710;2023-05-10T12:29:34;8.60;;;5.50;;
68025;SDS011;54819;48.030;14.710;2023-05-10T12:32:01;10.10;;;5.50;;
68025;SDS011;54819;48.030;14.710;2023-05-10T12:34:35;8.60;;;5.80;;
68025;SDS011;54819;48.030;14.710;2023-05-10T12:37:05;9.50;;;5.90;;
68025;SDS011;54819;48.030;14.710;2023-05-10T12:39:43;10.50;;;5.90;;
68025;SDS011;54819;48.030;14.710;2023-05-10T12:42:11;9.30;;;5.30;;
68025;SDS011;54819;48.030;14.710;2023-05-10T12:44:39;11.70;;;5.20;;
68025;SDS011;54819;48.030;14.710;2023-05-10T12:47:06;8.00;;;5.30;;
68025;SDS011;54819;48.030;14.710;2023-05-10T12:49:33;6.30;;;4.50;;
68025;SDS011;54819;48.030;14.710;2023-05-10T12:52:00;11.60;;;5.30;;
68025;SDS011;54819;48.030;14.710;2023-05-10T12:54:27;8.90;;;5.90;;
68025;SDS011;54819;48.030;14.710;2023-05-10T12:56:54;10.00;;;5.40;;
68025;SDS011;54819;48.030;14.710;2023-05-10T12:59:21;12.50;;;5.00;;
68025;SDS011;54819;48.030;14.710;2023-05-10T13:01:49;9.20;;;5.20;;
68025;SDS011;54819;48.030;14.710;2023-05-10T13:04:16;7.20;;;5.00;;
68025;SDS011;54819;48.030;14.710;2023-05-10T13:06:42;7.90;;;4.90;;
68025;SDS011;54819;48.030;14.710;2023-05-10T13:09:09;10.90;;;4.70;;
68025;SDS011;54819;48.030;14.710;2023-05-10T13:11:36;8.30;;;5.10;;
68025;SDS011;54819;48.030;14.710;2023-05-10T13:14:03;9.10;;;5.40;;
68025;SDS011;54819;48.030;14.710;2023-05-10T13:16:30;8.00;;;4.20;;
68025;SDS011;54819;48.030;14.710;2023-05-10T13:18:57;6.00;;;4.30;;
68025;SDS011;54819;48.030;14.710;2023-05-10T13:21:24;6.40;;;4.30;;
68025;SDS011;54819;48.030;14.710;2023-05-10T13:23:52;6.20;;;4.00;;
68025;SDS011;54819;48.030;14.710;2023-05-10T13:28:46;6.50;;;4.10;;
68025;SDS011;54819;48.030;14.710;2023-05-10T13:31:13;7.00;;;4.00;;
68025;SDS011;54819;48.030;14.710;2023-05-10T13:33:39;6.20;;;3.70;;
68025;SDS011;54819;48.030;14.710;2023-05-10T13:36:06;6.30;;;4.00;;
68025;SDS011;54819;48.030;14.710;2023-05-10T13:38:33;8.30;;;4.50;;
68025;SDS011;54819;48.030;14.710;2023-05-10T13:40:59;12.40;;;4.20;;
68025;SDS011;54819;48.030;14.710;2023-05-10T13:43:26;7.20;;;3.80;;
68025;SDS011;54819;48.030;14.710;2023-05-10T13:45:53;8.30;;;3.80;;
68025;SDS011;54819;48.030;14.710;2023-05-10T13:48:20;6.80;;;4.20;;
68025;SDS011;54819;48.030;14.710;2023-05-10T13:50:47;6.80;;;4.00;;
68025;SDS011;54819;48.030;14.710;2023-05-10T13:53:13;8.60;;;4.50;;
68025;SDS011;54819;48.030;14.710;2023-05-10T13:55:41;7.40;;;4.90;;
68025;SDS011;54819;48.030;14.710;2023-05-10T13:58:07;6.00;;;3.90;;
68025;SDS011;54819;48.030;14.710;2023-05-10T14:00:34;10.90;;;4.60;;
68025;SDS011;54819;48.030;14.710;2023-05-10T14:03:00;27.40;;;8.40;;
68025;SDS011;54819;48.030;14.710;2023-05-10T14:05:27;7.70;;;3.70;;
68025;SDS011;54819;48.030;14.710;2023-05-10T14:07:54;6.10;;;4.10;;
68025;SDS011;54819;48.030;14.710;2023-05-10T14:10:21;6.00;;;3.70;;
68025;SDS011;54819;48.030;14.710;2023-05-10T14:12:48;7.50;;;4.00;;
68025;SDS011;54819;48.030;14.710;2023-05-10T14:15:15;7.30;;;4.20;;
68025;SDS011;54819;48.030;14.710;2023-05-10T14:17:43;6.20;;;4.00;;
68025;SDS011;54819;48.030;14.710;2023-05-10T14:20:10;7.20;;;3.70;;
68025;SDS011;54819;48.030;14.710;2023-05-10T14:22:37;5.70;;;3.70;;
68025;SDS011;54819;48.030;14.710;2023-05-10T14:25:04;7.50;;;3.60;;
68025;SDS011;54819;48.030;14.710;2023-05-10T14:27:31;5.80;;;3.60;;
68025;SDS011;54819;48.030;14.710;2023-05-10T14:29:58;6.50;;;3.70;;
68025;SDS011;54819;48.030;14.710;2023-05-10T14:32:25;7.10;;;3.70;;
68025;SDS011;54819;48.030;14.710;2023-05-10T14:34:53;6.90;;;3.90;;
68025;SDS011;54819;48.030;14.710;2023-05-10T14:37:20;5.80;;;3.60;;
68025;SDS011;54819;48.030;14.710;2023-05-10T14:39:47;8.00;;;4.00;;
68025;SDS011;54819;48.030;14.710;2023-05-10T14:42:13;6.70;;;3.40;;
68025;SDS011;54819;48.030;14.710;2023-05-10T14:44:40;5.30;;;3.40;;
68025;SDS011;54819;48.030;14.710;2023-05-10T14:47:06;5.80;;;3.60;;
68025;SDS011;54819;48.030;14.710;2023-05-10T14:49:35;5.00;;;3.40;;
68025;SDS011;54819;48.030;14.710;2023-05-10T14:52:01;7.60;;;3.90;;
68025;SDS011;54819;48.030;14.710;2023-05-10T14:54:29;6.10;;;3.80;;
68025;SDS011;54819;48.030;14.710;2023-05-10T14:56:56;5.90;;;3.60;;
68025;SDS011;54819;48.030;14.710;2023-05-10T14:59:23;6.70;;;3.40;;
68025;SDS011;54819;48.030;14.710;2023-05-10T15:01:50;6.50;;;4.10;;
68025;SDS011;54819;48.030;14.710;2023-05-10T15:04:17;5.00;;;3.30;;
68025;SDS011;54819;48.030;14.710;2023-05-10T15:06:44;6.80;;;3.50;;
68025;SDS011;54819;48.030;14.710;2023-05-10T15:09:11;5.50;;;3.50;;
68025;SDS011;54819;48.030;14.710;2023-05-10T15:11:37;6.40;;;3.60;;
68025;SDS011;54819;48.030;14.710;2023-05-10T15:14:04;5.60;;;3.10;;
68025;SDS011;54819;48.030;14.710;2023-05-10T15:16:31;6.50;;;3.30;;
68025;SDS011;54819;48.030;14.710;2023-05-10T15:19:01;5.90;;;3.70;;
68025;SDS011;54819;48.030;14.710;2023-05-10T15:21:28;6.80;;;3.60;;
68025;SDS011;54819;48.030;14.710;2023-05-10T15:23:54;7.50;;;3.80;;
68025;SDS011;54819;48.030;14.710;2023-05-10T15:26:21;7.40;;;4.50;;
68025;SDS011;54819;48.030;14.710;2023-05-10T15:28:48;6.30;;;3.50;;
68025;SDS011;54819;48.030;14.710;2023-05-10T15:31:15;7.20;;;4.10;;
68025;SDS011;54819;48.030;14.710;2023-05-10T15:33:41;9.30;;;4.30;;
68025;SDS011;54819;48.030;14.710;2023-05-10T15:36:08;7.20;;;4.30;;
68025;SDS011;54819;48.030;14.710;2023-05-10T15:38:35;8.10;;;4.20;;
68025;SDS011;54819;48.030;14.710;2023-05-10T15:41:03;5.90;;;3.90;;
68025;SDS011;54819;48.030;14.710;2023-05-10T15:43:29;7.40;;;4.50;;
68025;SDS011;54819;48.030;14.710;2023-05-10T15:45:56;5.60;;;3.70;;